createdAt,value
2023-02-28T00:02:21.407Z,100.00
2023-02-28T00:04:54.067Z,100.00
2023-02-28T00:07:23.950Z,100.00
2023-02-28T00:09:52.369Z,100.00
2023-02-28T00:12:20.239Z,100.00
2023-02-28T00:14:48.488Z,100.00
2023-02-28T00:17:18.985Z,100.00
2023-02-28T00:19:46.983Z,100.00
2023-02-28T00:22:16.564Z,100.00
2023-02-28T00:24:44.736Z,100.00
2023-02-28T00:27:12.964Z,100.00
2023-02-28T00:29:41.450Z,100.00
2023-02-28T00:32:09.366Z,100.00
2023-02-28T00:34:39.453Z,100.00
2023-02-28T00:37:10.158Z,100.00
2023-02-28T00:39:39.683Z,100.00
2023-02-28T00:42:08.928Z,100.00
2023-02-28T00:44:37.354Z,100.00
2023-02-28T00:47:05.903Z,100.00
2023-02-28T00:49:34.554Z,100.00
2023-02-28T00:52:04.182Z,100.00
2023-02-28T00:54:32.237Z,100.00
2023-02-28T00:57:00.987Z,100.00
2023-02-28T00:59:29.041Z,100.00
2023-02-28T01:01:57.110Z,100.00
2023-02-28T01:04:25.512Z,100.00
2023-02-28T01:06:53.615Z,100.00
2023-02-28T01:09:21.669Z,100.00
2023-02-28T01:11:49.970Z,100.00
2023-02-28T01:14:19.507Z,100.00
2023-02-28T01:16:47.607Z,100.00
2023-02-28T01:19:15.723Z,100.00
2023-02-28T01:21:43.859Z,100.00
2023-02-28T01:24:14.484Z,100.00
2023-02-28T01:26:42.625Z,100.00
2023-02-28T01:29:10.714Z,100.00
2023-02-28T01:31:38.867Z,100.00
2023-02-28T01:34:10.157Z,100.00
2023-02-28T01:36:38.426Z,100.00
2023-02-28T01:39:06.331Z,100.00
2023-02-28T01:41:36.057Z,100.00
2023-02-28T01:44:47.637Z,100.00
2023-02-28T01:47:16.461Z,100.00
2023-02-28T01:49:44.419Z,100.00
2023-02-28T01:52:19.174Z,100.00
2023-02-28T01:54:57.812Z,100.00
2023-02-28T01:57:44.481Z,100.00
2023-02-28T02:00:16.850Z,100.00
2023-02-28T02:02:52.705Z,100.00
2023-02-28T02:05:24.540Z,100.00
2023-02-28T02:08:12.725Z,100.00
2023-02-28T02:10:52.575Z,100.00
2023-02-28T02:13:59.799Z,100.00
2023-02-28T02:17:14.975Z,100.00
2023-02-28T02:20:13.887Z,100.00
2023-02-28T02:23:00.884Z,100.00
2023-02-28T02:25:47.324Z,100.00
2023-02-28T02:28:52.710Z,100.00
2023-02-28T02:31:36.022Z,100.00
2023-02-28T02:34:26.105Z,100.00
2023-02-28T02:37:30.140Z,100.00
2023-02-28T02:40:10.484Z,100.00
2023-02-28T02:42:58.334Z,100.00
2023-02-28T02:45:37.485Z,100.00
2023-02-28T02:48:11.438Z,100.00
2023-02-28T02:50:52.638Z,100.00
2023-02-28T02:53:28.696Z,100.00
2023-02-28T02:55:59.062Z,100.00
2023-02-28T02:58:33.340Z,100.00
2023-02-28T03:01:05.303Z,100.00
2023-02-28T03:03:35.699Z,100.00
2023-02-28T03:06:05.309Z,100.00
2023-02-28T03:08:39.040Z,100.00
2023-02-28T03:11:15.923Z,100.00
2023-02-28T03:14:12.716Z,100.00
2023-02-28T03:16:51.152Z,100.00
2023-02-28T03:20:11.844Z,100.00
2023-02-28T03:23:22.758Z,100.00
2023-02-28T03:26:08.603Z,100.00
2023-02-28T03:28:59.362Z,100.00
2023-02-28T03:32:01.023Z,100.00
2023-02-28T03:34:38.365Z,100.00
2023-02-28T03:37:14.675Z,100.00
2023-02-28T03:40:00.491Z,100.00
2023-02-28T03:42:35.055Z,100.00
2023-02-28T03:45:18.490Z,100.00
2023-02-28T03:48:39.748Z,100.00
2023-02-28T03:51:12.618Z,100.00
2023-02-28T03:54:03.542Z,100.00
2023-02-28T03:56:49.239Z,100.00
2023-02-28T03:59:58.668Z,100.00
2023-02-28T04:02:26.906Z,100.00
2023-02-28T04:04:55.459Z,100.00
2023-02-28T04:07:23.799Z,100.00
2023-02-28T04:09:52.822Z,100.00
2023-02-28T04:12:22.286Z,100.00
2023-02-28T04:14:51.139Z,100.00
2023-02-28T04:17:19.892Z,100.00
2023-02-28T04:19:47.898Z,100.00
2023-02-28T04:22:16.061Z,100.00
2023-02-28T04:24:44.205Z,100.00
2023-02-28T04:27:12.336Z,100.00
2023-02-28T04:29:40.389Z,100.00
2023-02-28T04:32:09.212Z,100.00
2023-02-28T04:34:37.730Z,100.00
2023-02-28T04:37:14.406Z,100.00
2023-02-28T04:39:43.893Z,100.00
2023-02-28T04:42:13.428Z,100.00
2023-02-28T04:44:41.481Z,100.00
2023-02-28T04:47:09.501Z,100.00
2023-02-28T04:49:37.685Z,100.00
2023-02-28T04:52:06.327Z,100.00
2023-02-28T04:54:34.288Z,100.00
2023-02-28T04:57:02.934Z,100.00
2023-02-28T04:59:30.970Z,100.00
2023-02-28T05:01:59.625Z,100.00
2023-02-28T05:04:27.675Z,100.00
2023-02-28T05:06:56.439Z,100.00
2023-02-28T05:09:24.495Z,100.00
2023-02-28T05:11:52.634Z,100.00
2023-02-28T05:14:20.641Z,100.00
2023-02-28T05:16:48.572Z,100.00
2023-02-28T05:19:17.019Z,100.00
2023-02-28T05:21:54.411Z,100.00
2023-02-28T05:24:25.466Z,100.00
2023-02-28T05:26:55.500Z,100.00
2023-02-28T05:29:24.116Z,100.00
2023-02-28T05:31:52.452Z,100.00
2023-02-28T05:34:20.604Z,100.00
2023-02-28T05:36:49.259Z,100.00
2023-02-28T05:39:18.011Z,100.00
2023-02-28T05:41:45.962Z,100.00
2023-02-28T05:44:14.173Z,100.00
2023-02-28T05:46:42.162Z,100.00
2023-02-28T05:49:10.252Z,100.00
2023-02-28T05:51:40.964Z,100.00
2023-02-28T05:54:09.565Z,100.00
2023-02-28T05:56:40.247Z,100.00
2023-02-28T05:59:08.402Z,100.00
2023-02-28T06:01:49.497Z,100.00
2023-02-28T06:04:31.534Z,100.00
2023-02-28T06:07:00.708Z,100.00
2023-02-28T06:09:29.065Z,100.00
2023-02-28T06:12:01.196Z,100.00
2023-02-28T06:14:29.767Z,100.00
2023-02-28T06:16:59.226Z,100.00
2023-02-28T06:19:27.943Z,100.00
2023-02-28T06:21:58.172Z,100.00
2023-02-28T06:24:29.171Z,100.00
2023-02-28T06:26:57.359Z,100.00
2023-02-28T06:29:25.836Z,100.00
2023-02-28T06:31:53.851Z,100.00
2023-02-28T06:34:22.307Z,100.00
2023-02-28T06:36:53.017Z,100.00
2023-02-28T06:39:21.417Z,100.00
2023-02-28T06:41:55.306Z,100.00
2023-02-28T06:44:25.790Z,100.00
2023-02-28T06:46:54.163Z,100.00
2023-02-28T06:49:22.159Z,100.00
2023-02-28T06:51:51.166Z,100.00
2023-02-28T06:54:20.883Z,100.00
2023-02-28T06:56:48.999Z,100.00
2023-02-28T06:59:18.443Z,100.00
2023-02-28T07:01:46.727Z,100.00
2023-02-28T07:04:15.176Z,100.00
2023-02-28T07:06:43.561Z,100.00
2023-02-28T07:09:12.597Z,100.00
2023-02-28T07:11:42.091Z,100.00
2023-02-28T07:14:10.559Z,100.00
2023-02-28T07:16:38.714Z,100.00
2023-02-28T07:19:06.653Z,100.00
2023-02-28T07:21:34.851Z,100.00
2023-02-28T07:24:03.016Z,100.00
2023-02-28T07:26:31.083Z,100.00
2023-02-28T07:28:59.319Z,100.00
2023-02-28T07:31:27.684Z,100.00
2023-02-28T07:33:57.548Z,100.00
2023-02-28T07:36:25.892Z,100.00
2023-02-28T07:38:54.389Z,100.00
2023-02-28T07:41:25.858Z,100.00
2023-02-28T07:43:56.791Z,100.00
2023-02-28T07:46:24.852Z,100.00
2023-02-28T07:48:54.009Z,100.00
2023-02-28T07:51:24.341Z,100.00
2023-02-28T07:53:52.493Z,100.00
2023-02-28T07:56:20.510Z,100.00
2023-02-28T07:58:48.679Z,100.00
2023-02-28T08:01:18.572Z,100.00
2023-02-28T08:03:46.703Z,100.00
2023-02-28T08:06:24.771Z,100.00
2023-02-28T08:08:54.275Z,100.00
2023-02-28T08:11:22.406Z,100.00
2023-02-28T08:13:50.770Z,100.00
2023-02-28T08:16:23.258Z,100.00
2023-02-28T08:18:53.208Z,100.00
2023-02-28T08:21:22.225Z,100.00
2023-02-28T08:23:52.110Z,100.00
2023-02-28T08:26:21.704Z,100.00
2023-02-28T08:28:50.296Z,100.00
2023-02-28T08:31:19.144Z,100.00
2023-02-28T08:33:49.880Z,100.00
2023-02-28T08:36:18.964Z,100.00
2023-02-28T08:38:47.205Z,100.00
2023-02-28T08:41:15.879Z,100.00
2023-02-28T08:43:44.210Z,100.00
2023-02-28T08:46:15.928Z,100.00
2023-02-28T08:48:45.135Z,100.00
2023-02-28T08:51:19.830Z,100.00
2023-02-28T08:53:50.491Z,100.00
2023-02-28T08:56:18.815Z,100.00
2023-02-28T08:58:49.432Z,100.00
2023-02-28T09:01:24.602Z,100.00
2023-02-28T09:03:53.297Z,100.00
2023-02-28T09:06:25.409Z,100.00
2023-02-28T09:08:53.890Z,100.00
2023-02-28T09:11:22.449Z,100.00
2023-02-28T09:13:50.621Z,100.00
2023-02-28T09:16:19.491Z,100.00
2023-02-28T09:18:47.882Z,100.00
2023-02-28T09:21:19.198Z,100.00
2023-02-28T09:23:50.616Z,100.00
2023-02-28T09:26:23.300Z,100.00
2023-02-28T09:28:53.382Z,100.00
2023-02-28T09:31:29.205Z,100.00
2023-02-28T09:33:58.627Z,100.00
2023-02-28T09:36:41.787Z,100.00
2023-02-28T09:39:14.119Z,100.00
2023-02-28T09:41:51.781Z,100.00
2023-02-28T09:44:39.361Z,100.00
2023-02-28T09:47:14.772Z,100.00
2023-02-28T09:49:48.069Z,100.00
2023-02-28T09:52:33.513Z,100.00
2023-02-28T09:55:16.247Z,100.00
2023-02-28T09:57:45.084Z,100.00
2023-02-28T10:00:36.555Z,100.00
2023-02-28T10:03:54.550Z,100.00
2023-02-28T10:06:31.606Z,100.00
2023-02-28T10:09:16.625Z,100.00
2023-02-28T10:14:25.072Z,100.00
2023-02-28T10:17:00.503Z,100.00
2023-02-28T10:20:08.819Z,100.00
2023-02-28T10:23:10.053Z,100.00
2023-02-28T10:25:40.382Z,100.00
2023-02-28T10:28:14.367Z,100.00
2023-02-28T10:30:54.943Z,99.35
2023-02-28T10:33:38.151Z,97.86
2023-02-28T10:36:10.677Z,95.96
2023-02-28T10:38:40.851Z,99.32
2023-02-28T10:41:35.964Z,99.21
2023-02-28T10:44:24.484Z,94.67
2023-02-28T10:46:53.372Z,98.56
2023-02-28T10:49:24.145Z,97.72
2023-02-28T10:52:01.874Z,100.00
2023-02-28T10:54:38.864Z,96.11
2023-02-28T10:57:22.124Z,99.87
2023-02-28T11:00:06.514Z,97.39
2023-02-28T11:02:39.509Z,98.59
2023-02-28T11:05:38.051Z,99.09
2023-02-28T11:08:17.852Z,95.03
2023-02-28T11:10:59.528Z,92.98
2023-02-28T11:13:37.166Z,96.01
2023-02-28T11:16:13.927Z,92.00
2023-02-28T11:18:57.044Z,92.75
2023-02-28T11:21:41.469Z,99.09
2023-02-28T11:24:32.476Z,97.66
2023-02-28T11:27:00.669Z,96.17
2023-02-28T11:29:32.912Z,94.00
2023-02-28T11:32:19.961Z,93.17
2023-02-28T11:35:03.779Z,94.37
2023-02-28T11:37:33.782Z,93.09
2023-02-28T11:40:01.918Z,90.11
2023-02-28T11:42:59.063Z,88.94
2023-02-28T11:45:48.095Z,89.72
2023-02-28T11:48:50.618Z,91.85
2023-02-28T11:51:29.936Z,85.80
2023-02-28T11:54:29.561Z,90.14
2023-02-28T11:57:23.401Z,90.02
2023-02-28T12:00:02.357Z,86.14
2023-02-28T12:02:47.313Z,89.79
2023-02-28T12:05:40.237Z,93.61
2023-02-28T12:08:23.082Z,89.41
2023-02-28T12:11:53.283Z,87.70
2023-02-28T12:15:14.292Z,86.55
2023-02-28T12:18:00.273Z,85.51
2023-02-28T12:20:52.504Z,85.85
2023-02-28T12:23:38.933Z,86.90
2023-02-28T12:26:35.964Z,89.25
2023-02-28T12:29:21.713Z,86.85
2023-02-28T12:31:53.852Z,89.27
2023-02-28T12:34:29.962Z,83.58
2023-02-28T12:37:02.762Z,84.41
2023-02-28T12:39:50.437Z,83.65
2023-02-28T12:42:25.806Z,83.46
2023-02-28T12:45:11.336Z,83.50
2023-02-28T12:47:43.622Z,80.92
2023-02-28T12:50:13.393Z,82.50
2023-02-28T12:52:54.646Z,84.53
2023-02-28T12:55:53.079Z,83.77
2023-02-28T12:58:44.070Z,84.55
2023-02-28T13:01:45.823Z,81.65
2023-02-28T13:04:41.467Z,84.03
2023-02-28T13:07:44.989Z,84.20
2023-02-28T13:10:15.077Z,83.40
2023-02-28T13:12:52.232Z,81.55
2023-02-28T13:15:31.337Z,83.00
2023-02-28T13:18:02.315Z,87.06
2023-02-28T13:20:48.186Z,86.70
2023-02-28T13:23:41.945Z,84.73
2023-02-28T13:26:10.195Z,84.95
2023-02-28T13:28:55.042Z,80.98
2023-02-28T13:31:23.398Z,78.81
2023-02-28T13:33:56.041Z,81.06
2023-02-28T13:36:33.815Z,81.60
2023-02-28T13:39:44.974Z,78.44
2023-02-28T13:42:32.755Z,81.52
2023-02-28T13:45:03.794Z,82.63
2023-02-28T13:47:40.631Z,83.12
2023-02-28T13:50:32.747Z,83.80
2023-02-28T13:53:12.786Z,83.79
2023-02-28T13:56:08.873Z,81.59
2023-02-28T13:59:01.395Z,80.68
2023-02-28T14:01:56.738Z,79.55
2023-02-28T14:04:45.898Z,79.78
2023-02-28T14:07:26.529Z,80.89
2023-02-28T14:10:21.208Z,82.19
2023-02-28T14:13:27.041Z,83.20
2023-02-28T14:16:10.173Z,84.10
2023-02-28T14:18:48.984Z,83.03
2023-02-28T14:21:32.864Z,80.60
2023-02-28T14:24:17.111Z,81.66
2023-02-28T14:27:27.409Z,80.80
2023-02-28T14:30:37.428Z,82.74
2023-02-28T14:33:27.756Z,80.72
2023-02-28T14:36:39.181Z,81.53
2023-02-28T14:39:16.307Z,82.76
2023-02-28T14:41:46.306Z,82.83
2023-02-28T14:44:21.478Z,84.97
2023-02-28T14:47:07.129Z,84.01
2023-02-28T14:49:46.847Z,82.62
2023-02-28T14:52:24.869Z,82.47
2023-02-28T14:55:15.922Z,81.42
2023-02-28T14:57:58.549Z,83.25
2023-02-28T15:00:32.676Z,82.31
2023-02-28T15:03:02.827Z,81.48
2023-02-28T15:05:35.072Z,81.41
2023-02-28T15:08:17.717Z,83.32
2023-02-28T15:11:14.602Z,82.50
2023-02-28T15:13:51.691Z,83.68
2023-02-28T15:16:52.832Z,84.22
2023-02-28T15:19:30.655Z,82.48
2023-02-28T15:22:08.886Z,82.85
2023-02-28T15:24:43.750Z,84.38
2023-02-28T15:27:34.174Z,84.00
2023-02-28T15:30:25.740Z,85.00
2023-02-28T15:33:22.864Z,85.77
2023-02-28T15:35:52.365Z,87.45
2023-02-28T15:38:28.537Z,91.14
2023-02-28T15:41:00.691Z,93.05
2023-02-28T15:43:40.343Z,95.17
2023-02-28T15:46:12.644Z,95.80
2023-02-28T15:48:56.859Z,97.98
2023-02-28T15:51:37.687Z,97.63
2023-02-28T15:54:20.508Z,97.58
2023-02-28T15:56:54.460Z,98.49
2023-02-28T15:59:32.467Z,98.94
2023-02-28T16:02:20.923Z,100.00
2023-02-28T16:05:09.001Z,100.00
2023-02-28T16:07:45.348Z,100.00
2023-02-28T16:10:17.304Z,100.00
2023-02-28T16:12:45.955Z,100.00
2023-02-28T16:15:30.154Z,100.00
2023-02-28T16:17:59.366Z,100.00
2023-02-28T16:20:32.454Z,100.00
2023-02-28T16:23:04.269Z,100.00
2023-02-28T16:25:41.839Z,100.00
2023-02-28T16:28:26.894Z,100.00
2023-02-28T16:30:55.848Z,100.00
2023-02-28T16:33:23.984Z,100.00
2023-02-28T16:35:52.179Z,100.00
2023-02-28T16:38:20.705Z,100.00
2023-02-28T16:40:51.908Z,100.00
2023-02-28T16:43:24.548Z,100.00
2023-02-28T16:46:01.538Z,100.00
2023-02-28T16:48:31.957Z,100.00
2023-02-28T16:51:00.090Z,100.00
2023-02-28T16:53:27.998Z,100.00
2023-02-28T16:55:56.366Z,100.00
2023-02-28T16:58:26.710Z,100.00
2023-02-28T17:00:54.902Z,100.00
2023-02-28T17:03:33.627Z,100.00
2023-02-28T17:06:02.705Z,100.00
2023-02-28T17:08:33.670Z,100.00
2023-02-28T17:11:05.102Z,100.00
2023-02-28T17:13:37.822Z,100.00
2023-02-28T17:16:07.195Z,100.00
2023-02-28T17:18:35.942Z,100.00
2023-02-28T17:21:04.537Z,100.00
2023-02-28T17:23:32.566Z,100.00
2023-02-28T17:26:00.730Z,100.00
2023-02-28T17:28:29.011Z,100.00
2023-02-28T17:30:57.629Z,100.00
2023-02-28T17:33:26.036Z,100.00
2023-02-28T17:35:54.696Z,100.00
2023-02-28T17:38:24.416Z,100.00
2023-02-28T17:40:58.246Z,100.00
2023-02-28T17:43:28.034Z,100.00
2023-02-28T17:45:57.108Z,100.00
2023-02-28T17:48:26.882Z,100.00
2023-02-28T17:50:55.427Z,100.00
2023-02-28T17:53:26.034Z,100.00
2023-02-28T17:55:54.752Z,100.00
2023-02-28T17:58:24.179Z,100.00
2023-02-28T18:00:55.889Z,100.00
2023-02-28T18:03:25.469Z,100.00
2023-02-28T18:05:53.986Z,100.00
2023-02-28T18:08:22.428Z,100.00
2023-02-28T18:10:50.951Z,100.00
2023-02-28T18:13:19.519Z,100.00
2023-02-28T18:15:48.734Z,100.00
2023-02-28T18:18:17.693Z,100.00
2023-02-28T18:20:47.964Z,100.00
2023-02-28T18:23:18.956Z,100.00
2023-02-28T18:25:47.414Z,100.00
2023-02-28T18:28:15.586Z,100.00
2023-02-28T18:30:44.337Z,100.00
2023-02-28T18:33:12.497Z,100.00
2023-02-28T18:35:41.962Z,100.00
2023-02-28T18:38:22.886Z,100.00
2023-02-28T18:41:01.477Z,100.00
2023-02-28T18:43:32.852Z,100.00
2023-02-28T18:46:14.180Z,100.00
2023-02-28T18:48:43.047Z,100.00
2023-02-28T18:51:31.008Z,100.00
2023-02-28T18:54:00.163Z,100.00
2023-02-28T18:56:28.738Z,100.00
2023-02-28T18:58:57.007Z,100.00
2023-02-28T19:01:30.399Z,100.00
2023-02-28T19:04:03.791Z,100.00
2023-02-28T19:06:33.351Z,100.00
2023-02-28T19:09:04.224Z,100.00
2023-02-28T19:11:35.683Z,100.00
2023-02-28T19:14:04.835Z,100.00
2023-02-28T19:16:33.537Z,100.00
2023-02-28T19:19:02.965Z,100.00
2023-02-28T19:21:31.878Z,100.00
2023-02-28T19:24:02.916Z,100.00
2023-02-28T19:26:31.780Z,100.00
2023-02-28T19:29:06.815Z,100.00
2023-02-28T19:31:35.862Z,100.00
2023-02-28T19:34:04.759Z,100.00
2023-02-28T19:36:35.162Z,100.00
2023-02-28T19:39:05.824Z,100.00
2023-02-28T19:41:34.156Z,100.00
2023-02-28T19:44:02.478Z,100.00
2023-02-28T19:46:30.926Z,100.00
2023-02-28T19:48:59.902Z,100.00
2023-02-28T19:51:29.160Z,100.00
2023-02-28T19:53:58.226Z,100.00
2023-02-28T19:56:26.633Z,100.00
2023-02-28T19:58:58.270Z,100.00
2023-02-28T20:01:27.289Z,100.00
2023-02-28T20:03:56.778Z,100.00
2023-02-28T20:06:25.604Z,100.00
2023-02-28T20:08:55.882Z,100.00
2023-02-28T20:11:25.057Z,100.00
2023-02-28T20:13:55.476Z,100.00
2023-02-28T20:16:29.863Z,100.00
2023-02-28T20:19:00.134Z,100.00
2023-02-28T20:21:29.397Z,100.00
2023-02-28T20:23:58.997Z,100.00
2023-02-28T20:26:28.524Z,100.00
2023-02-28T20:28:58.231Z,100.00
2023-02-28T20:31:29.420Z,100.00
2023-02-28T20:33:58.370Z,100.00
2023-02-28T20:36:27.697Z,100.00
2023-02-28T20:38:57.396Z,100.00
2023-02-28T20:41:26.550Z,100.00
2023-02-28T20:43:59.868Z,100.00
2023-02-28T20:46:29.167Z,100.00
2023-02-28T20:48:58.525Z,100.00
2023-02-28T20:51:27.443Z,100.00
2023-02-28T20:53:56.564Z,100.00
2023-02-28T20:56:25.223Z,100.00
2023-02-28T20:58:57.338Z,100.00
2023-02-28T21:01:29.341Z,100.00
2023-02-28T21:04:02.714Z,100.00
2023-02-28T21:06:38.384Z,100.00
2023-02-28T21:09:09.916Z,100.00
2023-02-28T21:11:40.490Z,100.00
2023-02-28T21:14:17.345Z,100.00
2023-02-28T21:16:48.603Z,100.00
2023-02-28T21:19:18.895Z,100.00
2023-02-28T21:21:48.488Z,100.00
2023-02-28T21:24:20.229Z,100.00
2023-02-28T21:26:49.546Z,100.00
2023-02-28T21:29:17.930Z,100.00
2023-02-28T21:31:46.780Z,100.00
2023-02-28T21:34:15.371Z,100.00
2023-02-28T21:36:48.485Z,100.00
2023-02-28T21:39:22.117Z,100.00
2023-02-28T21:41:50.565Z,100.00
2023-02-28T21:44:19.846Z,100.00
2023-02-28T21:46:52.814Z,100.00
2023-02-28T21:49:21.153Z,100.00
2023-02-28T21:51:49.910Z,100.00
2023-02-28T21:54:19.165Z,100.00
2023-02-28T21:56:47.500Z,100.00
2023-02-28T21:59:16.209Z,100.00
2023-02-28T22:01:46.464Z,100.00
2023-02-28T22:04:23.709Z,100.00
2023-02-28T22:06:57.375Z,100.00
2023-02-28T22:09:26.829Z,100.00
2023-02-28T22:11:56.546Z,100.00
2023-02-28T22:14:27.043Z,100.00
2023-02-28T22:16:57.371Z,100.00
2023-02-28T22:19:28.206Z,100.00
2023-02-28T22:21:58.973Z,100.00
2023-02-28T22:24:27.702Z,100.00
2023-02-28T22:26:56.256Z,100.00
2023-02-28T22:29:25.095Z,100.00
2023-02-28T22:31:53.227Z,100.00
2023-02-28T22:34:21.408Z,100.00
2023-02-28T22:36:50.124Z,100.00
2023-02-28T22:39:18.420Z,100.00
2023-02-28T22:41:46.963Z,100.00
2023-02-28T22:44:16.653Z,100.00
2023-02-28T22:46:45.418Z,100.00
2023-02-28T22:49:13.692Z,100.00
2023-02-28T22:51:42.182Z,100.00
2023-02-28T22:54:10.380Z,100.00
2023-02-28T22:56:38.764Z,100.00
2023-02-28T22:59:06.947Z,100.00
2023-02-28T23:01:36.210Z,100.00
2023-02-28T23:04:05.204Z,100.00
2023-02-28T23:06:42.422Z,100.00
2023-02-28T23:09:23.979Z,100.00
2023-02-28T23:11:52.958Z,100.00
2023-02-28T23:14:22.490Z,100.00
2023-02-28T23:16:55.677Z,100.00
2023-02-28T23:19:30.312Z,100.00
2023-02-28T23:22:01.079Z,100.00
2023-02-28T23:24:33.812Z,100.00
2023-02-28T23:27:06.105Z,100.00
2023-02-28T23:29:35.876Z,100.00
2023-02-28T23:32:05.840Z,100.00
2023-02-28T23:34:34.282Z,100.00
2023-02-28T23:37:02.978Z,100.00
2023-02-28T23:39:32.025Z,100.00
2023-02-28T23:42:02.116Z,100.00
2023-02-28T23:44:30.899Z,100.00
2023-02-28T23:46:59.317Z,100.00
2023-02-28T23:49:28.052Z,100.00
2023-02-28T23:51:56.417Z,100.00
2023-02-28T23:54:24.865Z,100.00
2023-02-28T23:56:54.610Z,100.00
2023-02-28T23:59:23.325Z,100.00
